Time;durP1;ratioP1;P1;durP2;ratioP2;P2;SDS_P1;SDS_P2;PMS_P1;PMS_P2;Temp;Humidity;BMP_temperature;BMP_pressure;BME280_temperature;BME280_humidity;BME280_pressure;Samples;Min_cycle;Max_cycle;Signal;HPM_P1;HPM_P2
2021/01/10 00:00:20;;;;;;;48.80;22.27;;;4.20;95.90;;;4.14;80.27;101366.81;4996829;28;20057;-84
2021/01/10 00:02:48;;;;;;;53.17;22.85;;;4.20;95.80;;;4.19;79.68;101367.31;4996825;28;20745;-84
2021/01/10 00:05:20;;;;;;;53.20;24.17;;;4.20;95.90;;;4.14;79.62;101359.59;4996925;28;20070;-84
2021/01/10 00:07:48;;;;;;;52.47;22.02;;;4.20;95.80;;;4.15;80.12;101366.72;4997043;28;20047;-84
2021/01/10 00:10:16;;;;;;;51.38;24.45;;;4.20;95.70;;;4.18;79.40;101363.75;4997066;28;20129;-85
2021/01/10 00:12:43;;;;;;;55.00;23.80;;;4.20;95.90;;;4.22;79.62;101358.97;4996949;28;20043;-85
2021/01/10 00:15:13;;;;;;;57.00;24.23;;;4.20;95.90;;;4.19;79.41;101361.91;4996835;28;20526;-84
2021/01/10 00:17:44;;;;;;;55.38;23.38;;;4.20;95.80;;;4.07;79.79;101359.25;4996895;28;20073;-84
2021/01/10 00:20:12;;;;;;;63.43;25.17;;;4.20;95.80;;;4.02;79.90;101357.88;4996782;28;20407;-84
2021/01/10 00:22:39;;;;;;;58.35;24.35;;;4.20;95.90;;;4.15;80.36;101364.03;4996559;28;20066;-85
2021/01/10 00:25:07;;;;;;;63.80;24.85;;;4.10;96.00;;;4.12;80.08;101364.25;4978661;28;20042;-84
2021/01/10 00:27:34;;;;;;;59.67;24.27;;;4.20;95.90;;;4.05;80.16;101363.00;4996060;28;20078;-84
2021/01/10 00:30:01;;;;;;;58.03;25.70;;;4.10;95.70;;;4.10;79.74;101371.59;4996681;28;20077;-85
2021/01/10 00:32:27;;;;;;;67.80;25.90;;;4.10;95.80;;;4.18;79.53;101366.44;4996624;28;20084;-84
2021/01/10 00:34:55;;;;;;;65.60;26.23;;;4.10;95.90;;;4.16;80.00;101362.19;4996432;28;20403;-84
2021/01/10 00:37:22;;;;;;;63.40;27.55;;;4.10;95.80;;;4.29;79.80;101366.44;4995585;28;20732;-85
2021/01/10 00:39:49;;;;;;;71.35;27.73;;;4.10;96.20;;;4.24;79.14;101360.56;4996019;28;20046;-84
2021/01/10 00:42:17;;;;;;;68.90;26.40;;;4.10;96.00;;;4.21;79.95;101368.91;4995468;28;20056;-84
2021/01/10 00:44:46;;;;;;;67.18;27.45;;;4.10;96.20;;;4.17;79.62;101366.56;4978777;28;20052;-84
2021/01/10 00:47:16;;;;;;;67.60;26.58;;;4.10;95.90;;;4.09;79.56;101368.06;4978085;28;20054;-84
2021/01/10 00:49:44;;;;;;;59.03;25.40;;;4.10;95.90;;;4.07;80.02;101361.06;4992870;28;20441;-84
2021/01/10 00:52:12;;;;;;;61.33;25.50;;;4.20;95.70;;;4.13;79.91;101357.88;4979058;28;20085;-84
2021/01/10 00:54:40;;;;;;;56.33;24.15;;;4.30;95.80;;;4.11;79.52;101362.53;4978145;28;20038;-84
2021/01/10 00:57:08;;;;;;;54.85;24.30;;;4.10;95.40;;;4.12;79.13;101366.94;4995760;28;20042;-84
2021/01/10 00:59:37;;;;;;;57.45;23.55;;;4.10;95.50;;;4.13;78.91;101368.66;4996257;28;20050;-84
2021/01/10 01:02:04;;;;;;;54.13;23.80;;;4.10;95.40;;;3.98;79.14;101369.84;4996748;28;20082;-84
2021/01/10 01:04:31;;;;;;;54.58;22.67;;;4.30;95.30;;;3.89;79.89;101375.00;4978321;28;20519;-85
2021/01/10 01:06:58;;;;;;;59.03;25.17;;;4.00;95.30;;;4.00;79.67;101381.38;4976349;28;20054;-85
2021/01/10 01:09:25;;;;;;;58.22;24.65;;;4.00;95.40;;;4.06;79.10;101375.53;4977909;28;20038;-84
2021/01/10 01:11:53;;;;;;;59.90;24.15;;;4.00;95.50;;;4.00;79.46;101376.84;4995859;28;20216;-84
2021/01/10 01:14:20;;;;;;;52.50;23.23;;;4.00;95.50;;;4.07;79.21;101377.22;4995903;28;20053;-84
2021/01/10 01:16:46;;;;;;;64.40;25.95;;;4.20;95.80;;;4.06;78.90;101378.22;4995481;28;20049;-84
2021/01/10 01:19:13;;;;;;;54.22;24.30;;;4.00;95.60;;;4.04;79.58;101377.47;4995992;28;20134;-84
2021/01/10 01:21:40;;;;;;;58.85;25.05;;;4.00;95.70;;;4.09;78.97;101386.91;4995463;28;20046;-85
2021/01/10 01:24:08;;;;;;;61.15;25.10;;;4.00;95.80;;;4.08;79.12;101378.94;4977376;28;20046;-84
2021/01/10 01:26:36;;;;;;;56.42;25.10;;;4.00;95.60;;;4.14;79.14;101383.84;4994691;28;20046;-84
2021/01/10 01:29:02;;;;;;;53.55;24.17;;;4.00;95.70;;;4.04;79.00;101382.88;4995597;28;20104;-84
2021/01/10 01:31:30;;;;;;;63.25;25.05;;;4.00;95.80;;;4.11;79.83;101378.69;4995223;28;20050;-84
2021/01/10 01:33:57;;;;;;;56.25;22.92;;;4.00;95.80;;;4.11;79.13;101389.47;4995700;28;20117;-84
2021/01/10 01:36:27;;;;;;;54.80;23.73;;;4.00;95.70;;;4.06;79.14;101383.59;4995518;28;20125;-84
2021/01/10 01:38:55;;;;;;;52.97;24.23;;;4.00;95.60;;;4.06;79.33;101380.91;4995682;28;20043;-84
2021/01/10 01:41:22;;;;;;;57.45;24.27;;;4.00;95.70;;;4.07;78.89;101383.50;4995204;28;20046;-84
2021/01/10 01:43:51;;;;;;;58.00;24.63;;;4.00;95.70;;;4.04;78.55;101391.78;4994879;28;20045;-84
2021/01/10 01:46:28;;;;;;;53.47;24.50;;;4.00;95.60;;;3.97;79.45;101397.78;4994678;28;20114;-84
2021/01/10 01:48:57;;;;;;;57.40;23.92;;;3.90;95.70;;;3.91;79.33;101394.59;4995521;28;20054;-84
2021/01/10 01:51:24;;;;;;;55.20;24.45;;;3.90;95.60;;;3.92;79.30;101390.94;4995124;28;20077;-84
2021/01/10 01:53:51;;;;;;;53.42;24.60;;;3.90;95.70;;;4.06;79.45;101383.59;4996152;28;20050;-84
2021/01/10 01:56:18;;;;;;;51.03;22.60;;;3.90;95.90;;;4.06;79.02;101386.28;4995058;28;20443;-84
2021/01/10 01:59:04;;;;;;;51.40;23.67;;;3.90;95.70;;;4.02;79.40;101390.22;4995938;28;20062;-84
2021/01/10 02:01:34;;;;;;;48.85;22.30;;;3.90;95.80;;;4.00;79.46;101389.44;4995975;28;20491;-84
2021/01/10 02:04:12;;;;;;;48.20;21.75;;;3.90;95.60;;;3.92;79.19;101395.44;4977854;28;20061;-84
2021/01/10 02:06:51;;;;;;;51.08;22.95;;;3.90;95.60;;;3.94;79.59;101387.25;4976914;28;20482;-85
2021/01/10 02:09:19;;;;;;;48.10;20.95;;;3.90;95.50;;;3.91;79.29;101380.28;4995060;28;20050;-84
2021/01/10 02:11:52;;;;;;;45.60;21.23;;;3.90;95.40;;;4.02;78.46;101384.81;4995223;28;20043;-84
2021/01/10 02:14:23;;;;;;;50.35;23.02;;;3.90;95.60;;;4.07;78.72;101378.09;4995902;28;20049;-84
2021/01/10 02:16:50;;;;;;;52.72;23.42;;;3.80;95.50;;;4.04;78.40;101377.47;4995003;28;20133;-84
2021/01/10 02:19:23;;;;;;;48.92;22.25;;;3.80;95.60;;;4.04;78.90;101375.63;4998609;28;20134;-84
2021/01/10 02:21:57;;;;;;;47.35;22.55;;;3.80;95.40;;;3.94;78.78;101371.97;4998736;28;20081;-84
2021/01/10 02:24:25;;;;;;;46.95;21.33;;;4.00;95.40;;;4.00;78.06;101373.28;4998909;28;20089;-84
2021/01/10 02:26:52;;;;;;;43.92;21.00;;;3.80;95.20;;;4.04;78.10;101374.78;4998744;28;20066;-84
2021/01/10 02:29:20;;;;;;;44.08;21.17;;;3.80;95.20;;;3.97;77.60;101377.09;4999032;28;20050;-84
2021/01/10 02:31:50;;;;;;;47.80;21.40;;;3.80;95.30;;;3.98;78.53;101373.44;4998990;28;20049;-84
2021/01/10 02:34:19;;;;;;;49.00;21.70;;;3.80;95.00;;;3.94;78.20;101371.09;4999075;28;20088;-84
2021/01/10 02:37:09;;;;;;;46.60;21.15;;;3.70;95.20;;;4.05;77.82;101377.34;4998887;28;20134;-84
2021/01/10 02:39:51;;;;;;;42.47;20.27;;;3.70;95.40;;;4.00;78.14;101373.28;4999372;28;20046;-84
2021/01/10 02:42:33;;;;;;;43.03;21.02;;;3.70;95.20;;;3.98;77.78;101377.94;4998787;28;20042;-84
2021/01/10 02:45:05;;;;;;;44.47;19.88;;;3.70;95.10;;;3.88;77.87;101373.31;4998422;28;20089;-84
2021/01/10 02:47:32;;;;;;;45.42;21.42;;;3.70;95.20;;;3.99;78.18;101374.28;4998615;28;20491;-84
2021/01/10 02:49:59;;;;;;;50.17;21.65;;;3.70;95.50;;;4.01;78.12;101375.00;4997968;28;20046;-84
2021/01/10 02:52:26;;;;;;;44.60;21.60;;;3.60;95.50;;;4.01;77.74;101378.56;4998255;28;20054;-84
2021/01/10 02:54:54;;;;;;;47.30;20.70;;;3.70;95.60;;;4.01;78.13;101369.63;4998413;28;20066;-84
2021/01/10 02:57:27;;;;;;;46.72;21.42;;;3.80;95.70;;;4.03;77.98;101371.22;4997904;28;20069;-84
2021/01/10 02:59:56;;;;;;;49.83;20.92;;;3.60;95.50;;;4.04;78.22;101374.78;4998026;28;20419;-84
2021/01/10 03:02:23;;;;;;;49.40;22.17;;;3.70;95.60;;;3.97;77.68;101369.00;4998391;28;20118;-84
2021/01/10 03:04:50;;;;;;;51.90;21.48;;;3.70;95.50;;;3.88;77.57;101378.69;4998090;28;20042;-84
2021/01/10 03:07:18;;;;;;;54.00;22.38;;;3.70;95.50;;;3.86;78.37;101375.22;4998232;28;20137;-84
2021/01/10 03:09:45;;;;;;;52.33;23.60;;;3.70;95.50;;;3.81;78.17;101371.19;4979674;28;20118;-84
2021/01/10 03:12:25;;;;;;;49.47;22.58;;;3.70;95.40;;;3.98;78.19;101369.84;4980549;28;20065;-84
2021/01/10 03:14:53;;;;;;;53.75;23.45;;;3.70;95.60;;;4.06;77.64;101370.13;4997753;28;20092;-84
2021/01/10 03:17:34;;;;;;;56.72;23.80;;;3.80;95.70;;;4.04;77.78;101361.31;4997825;28;20043;-85
2021/01/10 03:20:02;;;;;;;61.60;24.80;;;3.70;95.70;;;4.05;77.96;101368.41;4997345;28;20046;-84
2021/01/10 03:22:29;;;;;;;59.15;24.73;;;3.70;95.90;;;3.98;78.19;101356.38;4997986;28;20074;-84
2021/01/10 03:24:56;;;;;;;55.72;24.38;;;3.70;95.80;;;3.95;78.07;101356.66;4997318;28;20129;-84
2021/01/10 03:27:24;;;;;;;57.70;23.88;;;3.70;95.80;;;3.88;78.24;101351.75;4997900;28;20070;-84
2021/01/10 03:29:51;;;;;;;58.97;24.63;;;3.70;95.80;;;3.85;79.19;101351.97;4996925;28;20066;-84
2021/01/10 03:32:18;;;;;;;65.72;25.67;;;3.70;96.10;;;3.94;78.53;101357.63;4997558;28;20046;-84
2021/01/10 03:34:44;;;;;;;58.83;26.17;;;3.70;96.10;;;3.94;78.19;101357.63;4997414;28;20054;-84
2021/01/10 03:37:11;;;;;;;58.95;24.70;;;3.70;95.90;;;3.99;78.58;101347.34;4996810;28;20064;-84
2021/01/10 03:39:38;;;;;;;64.72;25.90;;;3.70;96.10;;;3.99;78.28;101356.28;4997796;28;20054;-84
2021/01/10 03:42:06;;;;;;;66.00;26.42;;;3.70;96.00;;;4.05;78.32;101354.94;4998104;28;20052;-84
2021/01/10 03:44:34;;;;;;;61.78;25.48;;;3.70;96.10;;;4.05;77.76;101349.56;4997803;28;20085;-84
2021/01/10 03:47:01;;;;;;;59.33;25.73;;;3.90;96.20;;;3.87;78.09;101347.34;4997685;28;20062;-84
2021/01/10 03:49:28;;;;;;;66.63;26.48;;;3.70;96.00;;;3.83;78.97;101347.72;4997030;28;20078;-84
2021/01/10 03:51:54;;;;;;;61.65;25.40;;;3.70;95.80;;;3.78;78.86;101344.50;4997504;28;20116;-84
2021/01/10 03:54:21;;;;;;;61.00;25.85;;;3.70;95.70;;;3.80;78.77;101340.72;4997655;28;20038;-84
2021/01/10 03:56:49;;;;;;;54.80;24.00;;;3.70;95.70;;;3.67;78.45;101345.34;4996688;28;20035;-84
2021/01/10 03:59:15;;;;;;;61.72;25.35;;;3.70;95.50;;;3.76;78.48;101344.63;4997675;28;20070;-84
2021/01/10 04:01:43;;;;;;;58.03;24.25;;;3.60;95.60;;;3.88;78.01;101351.75;4997760;28;20141;-84
2021/01/10 04:04:10;;;;;;;55.45;25.27;;;3.60;95.50;;;3.76;78.22;101351.84;4997318;28;20043;-84
2021/01/10 04:06:36;;;;;;;53.65;23.83;;;3.60;95.40;;;3.63;78.20;101346.56;4996510;28;20176;-84
2021/01/10 04:09:04;;;;;;;53.22;23.10;;;3.50;95.10;;;3.56;78.07;101345.31;4996285;28;20507;-84
2021/01/10 04:11:31;;;;;;;53.08;23.75;;;3.50;95.20;;;3.66;78.69;101347.19;4996684;28;20477;-84
2021/01/10 04:13:58;;;;;;;55.28;22.80;;;3.50;95.30;;;3.85;78.38;101351.13;4996973;28;20117;-84
2021/01/10 04:16:24;;;;;;;53.67;23.10;;;3.50;95.40;;;3.89;77.88;101348.06;4996563;28;20122;-84
2021/01/10 04:18:52;;;;;;;51.42;22.70;;;3.50;95.60;;;3.82;77.44;101338.75;4996632;28;20099;-84
2021/01/10 04:21:19;;;;;;;48.38;20.92;;;3.50;95.60;;;3.64;78.25;101340.22;4997048;28;20081;-84
2021/01/10 04:23:46;;;;;;;49.85;22.75;;;3.40;95.40;;;3.64;78.17;101337.53;4996814;28;20038;-84
2021/01/10 04:26:13;;;;;;;45.63;21.38;;;3.40;95.30;;;3.60;78.08;101334.22;4996434;28;20133;-84
2021/01/10 04:28:40;;;;;;;45.88;20.40;;;3.50;95.40;;;3.70;78.13;101342.41;4996555;28;20120;-84
2021/01/10 04:31:06;;;;;;;48.38;21.20;;;3.40;95.20;;;3.77;76.94;101351.75;4996718;28;20137;-84
2021/01/10 04:33:34;;;;;;;46.47;21.05;;;3.40;95.10;;;3.76;76.89;101341.09;4996695;28;20142;-84
2021/01/10 04:36:02;;;;;;;46.33;21.95;;;3.40;95.10;;;3.59;77.64;101350.47;4996742;28;20045;-84
2021/01/10 04:38:29;;;;;;;44.92;21.27;;;3.40;95.10;;;3.53;77.26;101347.25;4996349;28;20098;-84
2021/01/10 04:40:58;;;;;;;47.70;20.92;;;3.30;94.80;;;3.55;77.97;101343.63;4995844;28;20046;-84
2021/01/10 04:43:25;;;;;;;43.75;21.05;;;3.30;94.80;;;3.55;77.14;101352.53;4996178;28;20088;-84
2021/01/10 04:45:52;;;;;;;44.65;21.33;;;3.30;94.70;;;3.47;78.03;101349.59;4982933;28;20078;-84
2021/01/10 04:48:21;;;;;;;42.38;19.73;;;3.30;94.90;;;3.45;77.61;101338.94;4976958;28;20134;-84
2021/01/10 04:50:48;;;;;;;47.05;20.83;;;3.30;95.00;;;3.45;78.05;101336.25;4976994;28;20078;-84
2021/01/10 04:53:21;;;;;;;46.55;19.85;;;3.30;95.00;;;3.53;78.25;101339.19;4977011;28;20051;-84
2021/01/10 04:55:49;;;;;;;51.45;21.15;;;3.30;95.30;;;3.53;78.02;101333.81;4976906;28;20042;-84
2021/01/10 04:58:16;;;;;;;49.45;20.92;;;3.30;95.20;;;3.39;78.04;101339.41;4976677;28;20126;-84
2021/01/10 05:00:42;;;;;;;49.97;21.77;;;3.30;95.10;;;3.35;78.21;101335.25;4976751;28;20047;-84
2021/01/10 05:03:11;;;;;;;54.25;21.58;;;3.30;95.10;;;3.38;78.40;101339.53;4976406;28;20077;-84
2021/01/10 05:05:39;;;;;;;50.05;21.20;;;3.20;95.00;;;3.43;78.62;101332.81;4976629;28;20065;-84
2021/01/10 05:08:08;;;;;;;53.72;21.90;;;3.20;95.20;;;3.38;78.00;101334.16;4976746;28;20047;-84
2021/01/10 05:10:36;;;;;;;44.33;20.27;;;3.30;95.30;;;3.37;78.03;101345.88;4959088;28;20150;-84
2021/01/10 05:13:04;;;;;;;50.97;21.35;;;3.20;95.30;;;3.29;78.71;101338.38;4976944;28;20159;-84
2021/01/10 05:15:31;;;;;;;45.13;20.98;;;3.30;95.50;;;3.26;79.01;101342.19;4976397;28;20045;-84
2021/01/10 05:18:00;;;;;;;65.70;21.27;;;3.20;95.40;;;3.28;79.05;101342.91;4976432;28;20095;-84
2021/01/10 05:20:29;;;;;;;46.38;21.23;;;3.20;95.40;;;3.30;79.22;101343.66;4976185;28;20529;-84
2021/01/10 05:22:56;;;;;;;50.10;20.90;;;3.20;95.40;;;3.35;79.07;101345.13;4976386;28;20070;-84
2021/01/10 05:25:23;;;;;;;43.10;20.55;;;3.20;95.40;;;3.31;78.42;101344.50;4976322;28;20480;-84
2021/01/10 05:27:54;;;;;;;48.90;20.77;;;3.20;95.60;;;3.32;78.68;101348.94;4976153;28;20071;-84
2021/01/10 05:30:28;;;;;;;58.90;21.58;;;3.20;95.90;;;3.34;79.15;101346.97;4976256;28;20050;-84
2021/01/10 05:33:00;;;;;;;54.38;21.25;;;3.20;95.90;;;3.40;79.10;101346.50;4976191;28;20074;-84
2021/01/10 05:35:26;;;;;;;64.68;21.38;;;3.20;95.80;;;3.30;79.25;101346.34;4976181;28;20045;-84
2021/01/10 05:38:00;;;;;;;44.45;20.27;;;3.20;95.80;;;3.41;78.99;101350.03;4975908;28;20802;-84
2021/01/10 05:40:31;;;;;;;54.10;20.02;;;3.20;95.90;;;3.37;78.29;101346.75;4976307;28;20078;-84
2021/01/10 05:43:07;;;;;;;44.05;21.42;;;3.20;95.90;;;3.31;78.85;101347.19;4976773;28;20480;-84
2021/01/10 05:45:35;;;;;;;43.70;20.65;;;3.20;95.80;;;3.45;78.49;101349.69;4976598;28;20042;-83
2021/01/10 05:48:15;;;;;;;61.67;21.77;;;3.20;96.00;;;3.50;78.55;101347.53;4976709;28;20117;-84
2021/01/10 05:50:43;;;;;;;45.92;21.35;;;3.20;96.00;;;3.36;78.37;101345.03;4976533;28;20074;-84
2021/01/10 05:53:22;;;;;;;47.53;21.10;;;3.20;96.00;;;3.34;78.23;101346.97;4978694;28;20411;-84
2021/01/10 05:55:58;;;;;;;52.60;20.77;;;3.20;96.00;;;3.32;78.57;101340.84;4980369;28;20103;-84
2021/01/10 05:58:27;;;;;;;43.08;20.13;;;3.20;95.80;;;3.42;79.08;101355.31;4980803;28;20047;-84
2021/01/10 06:00:54;;;;;;;44.92;21.05;;;3.20;96.00;;;3.47;78.28;101352.28;4980460;28;20047;-84
2021/01/10 06:03:23;;;;;;;48.22;22.10;;;3.20;95.80;;;3.52;78.28;101350.94;4962751;28;20050;-84
2021/01/10 06:05:58;;;;;;;47.22;21.10;;;3.20;95.70;;;3.39;78.55;101350.19;4980317;28;20499;-84
2021/01/10 06:08:31;;;;;;;51.42;22.83;;;3.20;95.70;;;3.40;78.24;101349.19;4980118;28;20055;-84
2021/01/10 06:11:25;;;;;;;59.00;22.70;;;3.20;95.80;;;3.33;78.44;101346.13;4979928;28;20077;-84
2021/01/10 06:13:57;;;;;;;48.00;22.27;;;3.20;95.70;;;3.32;78.25;101355.16;4980512;28;20798;-84
2021/01/10 06:16:26;;;;;;;45.72;21.02;;;3.20;95.80;;;3.41;78.81;101353.59;4979527;28;20042;-84
2021/01/10 06:18:57;;;;;;;54.33;24.35;;;3.20;95.80;;;3.46;78.58;101351.41;4979928;28;20117;-84
2021/01/10 06:21:27;;;;;;;50.65;23.33;;;3.20;95.70;;;3.40;78.59;101349.19;4979484;28;20078;-84
2021/01/10 06:23:57;;;;;;;55.53;23.55;;;3.20;95.60;;;3.38;78.93;101359.22;4979636;28;20125;-84
2021/01/10 06:26:26;;;;;;;60.55;24.02;;;3.20;95.70;;;3.34;78.39;101346.97;4979949;28;20043;-83
2021/01/10 06:29:00;;;;;;;55.65;23.73;;;3.20;95.70;;;3.39;78.41;101349.28;4979735;28;20078;-84
2021/01/10 06:31:33;;;;;;;65.32;24.48;;;3.20;95.60;;;3.46;78.62;101356.78;4979002;28;20120;-84
2021/01/10 06:34:04;;;;;;;54.50;24.45;;;3.20;95.80;;;3.38;78.74;101358.34;4979104;28;20111;-84
2021/01/10 06:36:34;;;;;;;60.65;25.13;;;3.30;95.90;;;3.45;78.64;101355.09;4979196;28;20074;-84
2021/01/10 06:39:12;;;;;;;58.63;24.83;;;3.20;95.80;;;3.36;79.07;101360.31;4978856;28;20081;-84
2021/01/10 06:42:14;;;;;;;58.45;24.75;;;3.30;95.90;;;3.41;79.03;101367.06;4982251;28;20043;-84
2021/01/10 06:44:46;;;;;;;52.40;23.63;;;3.30;95.90;;;3.45;78.52;101355.09;4979195;28;20054;-84
2021/01/10 06:47:21;;;;;;;57.35;24.40;;;3.30;96.00;;;3.49;78.44;101361.94;4961682;28;20073;-84
2021/01/10 06:49:49;;;;;;;57.33;23.90;;;3.30;96.00;;;3.48;78.19;101354.84;4979094;28;20099;-84
2021/01/10 06:52:18;;;;;;;61.17;25.95;;;3.30;96.10;;;3.37;78.90;101359.31;4979094;28;20543;-84
2021/01/10 06:54:48;;;;;;;69.00;26.00;;;3.30;95.90;;;3.54;78.87;101369.66;4979255;28;20074;-84
2021/01/10 06:57:15;;;;;;;60.05;25.65;;;3.30;96.00;;;3.57;78.24;101364.03;4979794;28;20491;-84
2021/01/10 07:00:09;;;;;;;62.17;24.73;;;3.40;96.00;;;3.58;78.60;101365.78;4979320;28;20042;-84
2021/01/10 07:03:06;;;;;;;54.47;23.85;;;3.30;96.00;;;3.50;78.63;101362.78;4979305;28;20043;-84
2021/01/10 07:06:07;;;;;;;53.22;23.65;;;3.30;95.70;;;3.64;78.49;101364.44;4977469;28;20132;-84
2021/01/10 07:08:42;;;;;;;56.20;22.95;;;3.30;95.80;;;3.46;77.90;101362.16;4979038;28;20411;-84
2021/01/10 07:11:34;;;;;;;48.75;21.80;;;3.30;95.60;;;3.45;78.79;101371.22;4979094;28;20496;-84
2021/01/10 07:14:27;;;;;;;50.22;23.15;;;3.30;95.70;;;3.41;78.70;101376.94;4978941;28;20089;-84
2021/01/10 07:17:12;;;;;;;52.13;23.08;;;3.30;95.60;;;3.51;78.15;101378.81;4979192;28;20078;-85
2021/01/10 07:19:48;;;;;;;51.28;21.90;;;3.30;95.80;;;3.47;78.16;101369.28;4979033;28;20122;-84
2021/01/10 07:22:34;;;;;;;50.05;22.70;;;3.30;95.70;;;3.49;77.94;101372.69;4978043;28;20138;-84
2021/01/10 07:25:35;;;;;;;48.13;22.25;;;3.30;95.80;;;3.58;78.50;101381.03;4977845;28;20050;-84
2021/01/10 07:28:41;;;;;;;50.67;21.23;;;3.30;96.00;;;3.58;78.53;101375.66;4926576;28;20057;-83
2021/01/10 07:31:15;;;;;;;49.17;21.42;;;3.30;96.00;;;3.64;78.43;101376.06;4977571;28;20043;-85
2021/01/10 07:33:43;;;;;;;46.22;20.35;;;3.30;95.90;;;3.70;77.49;101380.09;4979956;28;20526;-81
2021/01/10 07:36:11;;;;;;;46.60;21.60;;;3.40;95.90;;;3.69;78.02;101379.25;4980159;28;20085;-82
2021/01/10 07:38:40;;;;;;;52.70;22.92;;;3.30;95.90;;;3.68;77.93;101382.06;4980120;28;20051;-81
2021/01/10 07:41:28;;;;;;;48.08;21.50;;;3.30;96.00;;;3.59;77.89;101383.63;4979649;28;20070;-82
2021/01/10 07:43:57;;;;;;;47.38;21.92;;;3.30;95.80;;;3.55;78.26;101375.91;4979748;28;20042;-81
2021/01/10 07:47:00;;;;;;;55.60;22.75;;;3.30;95.70;;;3.52;77.78;101377.88;4979663;28;20066;-81
2021/01/10 07:49:51;;;;;;;52.00;22.05;;;3.30;95.60;;;3.58;78.25;101381.91;4974175;28;20065;-82
2021/01/10 07:52:33;;;;;;;56.55;23.55;;;3.30;95.80;;;3.63;77.80;101384.25;4979654;28;20742;-81
2021/01/10 07:55:00;;;;;;;51.45;21.67;;;3.40;96.00;;;3.60;78.81;101379.09;4980957;28;20067;-81
2021/01/10 07:57:33;;;;;;;57.80;24.50;;;3.30;95.90;;;3.57;78.76;101373.94;4979768;28;20050;-82
2021/01/10 08:00:12;;;;;;;54.17;24.02;;;3.40;95.90;;;3.53;78.54;101374.19;4979325;28;20073;-83
2021/01/10 08:02:58;;;;;;;62.50;24.87;;;3.40;95.80;;;3.57;78.59;101380.19;4964153;28;20071;-83
2021/01/10 08:05:32;;;;;;;59.70;25.20;;;3.40;95.90;;;3.48;78.17;101379.06;4977670;28;20811;-83
2021/01/10 08:08:05;;;;;;;65.82;24.92;;;3.40;95.80;;;3.52;79.24;101376.97;4978948;28;20042;-83
2021/01/10 08:10:48;;;;;;;55.58;23.60;;;3.40;95.90;;;3.61;78.96;101383.50;4979351;28;20102;-83
2021/01/10 08:13:35;;;;;;;58.42;24.48;;;3.40;95.90;;;3.67;78.86;101393.78;4979162;28;20077;-83
2021/01/10 08:16:05;;;;;;;52.08;23.42;;;3.40;96.00;;;3.62;78.44;101387.94;4979420;28;20061;-83
2021/01/10 08:18:37;;;;;;;54.53;24.02;;;3.40;95.90;;;3.61;78.55;101381.66;4980095;28;20059;-82
2021/01/10 08:21:09;;;;;;;56.78;24.90;;;3.40;95.90;;;3.66;79.11;101387.56;4979140;28;20065;-82
2021/01/10 08:23:37;;;;;;;57.28;24.95;;;3.50;96.20;;;3.63;78.50;101386.94;4978884;28;20094;-81
2021/01/10 08:26:08;;;;;;;57.90;24.75;;;3.50;96.30;;;3.66;79.32;101387.56;4978430;28;20051;-82
2021/01/10 08:28:37;;;;;;;59.20;25.63;;;3.50;96.30;;;3.77;79.12;101391.25;4979761;28;20046;-85
2021/01/10 08:31:07;;;;;;;59.85;25.65;;;3.50;96.50;;;3.78;78.46;101387.59;4974587;28;20081;-87
2021/01/10 08:33:34;;;;;;;61.22;26.20;;;3.60;96.30;;;3.71;78.85;101382.69;4956821;28;20045;-87
2021/01/10 08:36:17;;;;;;;61.63;25.70;;;3.50;96.20;;;3.69;79.00;101389.16;4956777;28;20486;-86
2021/01/10 08:38:52;;;;;;;65.55;27.02;;;3.50;96.30;;;3.78;78.68;101392.97;4989691;28;20074;-84
2021/01/10 08:41:29;;;;;;;61.10;26.05;;;3.60;96.40;;;3.65;79.45;101385.81;4991631;28;20054;-83
2021/01/10 08:43:58;;;;;;;60.10;26.17;;;3.60;96.30;;;3.73;79.64;101401.38;4984902;28;20035;-83
2021/01/10 08:46:28;;;;;;;62.03;26.92;;;3.60;96.50;;;3.62;79.72;101404.06;4995910;28;20072;-83
2021/01/10 08:48:55;;;;;;;59.40;25.33;;;3.60;96.30;;;3.66;79.97;101401.00;4997199;28;20045;-86
2021/01/10 08:51:34;;;;;;;59.72;25.13;;;3.60;96.40;;;3.71;79.65;101404.22;5002818;28;20443;-81
2021/01/10 08:54:03;;;;;;;55.03;24.30;;;3.60;96.40;;;3.82;79.50;101411.44;5000649;28;20043;-82
2021/01/10 08:56:32;;;;;;;51.58;23.10;;;3.60;96.70;;;3.83;79.10;101412.34;5001597;28;20077;-82
2021/01/10 08:58:58;;;;;;;55.33;23.30;;;3.70;96.70;;;3.84;79.66;101420.25;4995432;28;20074;-82
2021/01/10 09:01:27;;;;;;;60.55;24.58;;;3.70;96.80;;;3.78;79.09;101412.66;4985073;28;20043;-82
2021/01/10 09:04:02;;;;;;;55.33;23.35;;;3.70;96.60;;;3.84;79.51;101416.72;4978881;28;20089;-83
2021/01/10 09:07:00;;;;;;;47.63;22.13;;;3.70;96.80;;;3.89;79.01;101419.94;4977149;28;20511;-83
2021/01/10 09:09:42;;;;;;;56.00;22.42;;;3.70;96.80;;;3.80;79.79;101413.41;4967977;28;20055;-83
2021/01/10 09:12:29;;;;;;;47.38;22.35;;;3.70;96.70;;;3.77;79.61;101412.78;4977809;28;20056;-83
2021/01/10 09:15:00;;;;;;;44.83;21.52;;;3.70;96.50;;;3.77;79.92;101418.16;4981986;28;20038;-84
2021/01/10 09:17:35;;;;;;;;;;;3.80;96.60;;;3.82;80.29;101421.38;4997177;28;20057;-83
2021/01/10 09:20:11;;;;;;;46.88;20.83;;;3.80;96.70;;;3.75;80.52;101418.31;4995182;28;20016;-84
2021/01/10 09:22:39;;;;;;;49.75;23.08;;;3.80;96.70;;;3.76;80.56;101417.31;4997835;28;20061;-84
2021/01/10 09:25:11;;;;;;;47.78;21.75;;;3.80;96.50;;;3.69;81.17;101416.06;4979186;28;20129;-84
2021/01/10 09:27:39;;;;;;;55.65;23.38;;;3.80;96.50;;;3.76;80.20;101420.00;4978580;28;20054;-84
2021/01/10 09:30:07;;;;;;;52.13;23.73;;;3.90;96.50;;;3.89;80.30;101412.69;4979328;28;20085;-84
2021/01/10 09:32:34;;;;;;;44.53;21.33;;;3.90;96.60;;;3.87;80.68;101414.66;4979545;28;20327;-84
2021/01/10 09:35:02;;;;;;;44.35;20.98;;;3.90;96.60;;;3.85;80.64;101410.38;4979156;28;20115;-82
2021/01/10 09:37:31;;;;;;;52.33;21.33;;;3.90;96.60;;;3.87;80.27;101414.66;4978809;28;20066;-82
2021/01/10 09:40:11;;;;;;;49.22;20.90;;;4.00;96.60;;;3.87;80.64;101411.13;4979636;28;20137;-82
2021/01/10 09:42:43;;;;;;;45.00;22.10;;;4.00;96.50;;;3.92;80.56;101404.38;4978809;28;20133;-82
2021/01/10 09:45:13;;;;;;;43.85;20.92;;;4.00;96.70;;;3.92;80.04;101407.09;4979448;28;20047;-82
2021/01/10 09:47:40;;;;;;;48.45;22.55;;;4.00;96.50;;;3.96;80.57;101414.91;4978963;28;20077;-82
2021/01/10 09:50:13;;;;;;;45.80;21.73;;;4.00;96.50;;;3.98;80.06;101411.13;4979144;28;20070;-82
2021/01/10 09:52:48;;;;;;;48.65;22.30;;;4.00;96.30;;;3.96;80.50;101412.22;4979412;28;20043;-82
2021/01/10 09:55:15;;;;;;;48.40;21.80;;;4.10;96.30;;;3.95;79.97;101414.06;4978826;28;20076;-82
2021/01/10 09:57:42;;;;;;;49.70;21.40;;;4.10;96.20;;;4.01;80.01;101415.41;4978425;28;20051;-82
2021/01/10 10:00:15;;;;;;;46.78;22.45;;;4.10;96.30;;;4.06;80.15;101414.06;4978759;28;20066;-82
2021/01/10 10:02:43;;;;;;;48.70;22.05;;;4.10;96.60;;;4.10;80.19;101425.47;4973926;28;20387;-82
2021/01/10 10:05:13;;;;;;;46.00;22.10;;;4.20;96.80;;;4.05;80.92;101417.72;4980036;28;20110;-82
2021/01/10 10:07:43;;;;;;;55.55;22.63;;;4.20;96.60;;;4.00;80.55;101419.94;4993000;28;20046;-82
2021/01/10 10:10:28;;;;;;;50.30;22.33;;;4.20;96.60;;;4.05;80.51;101411.50;4961722;28;20590;-82
2021/01/10 10:12:57;;;;;;;56.05;24.02;;;4.40;96.60;;;4.04;80.65;101421.44;4987537;28;20050;-84
2021/01/10 10:15:36;;;;;;;49.47;21.55;;;4.20;96.50;;;4.07;80.69;101420.31;4971635;28;20065;-85
2021/01/10 10:18:03;;;;;;;47.13;22.10;;;4.20;96.60;;;4.13;80.33;101414.44;4973310;28;20055;-86
2021/01/10 10:20:31;;;;;;;47.85;22.75;;;4.20;96.60;;;4.13;80.59;101410.91;4972833;28;20105;-86
2021/01/10 10:23:08;;;;;;;47.78;22.10;;;4.20;96.40;;;4.17;80.28;101405.16;4972874;28;20103;-86
2021/01/10 10:25:36;;;;;;;49.92;22.33;;;4.20;96.40;;;4.22;80.44;101416.41;4972734;28;20049;-86
2021/01/10 10:28:05;;;;;;;46.05;23.40;;;4.30;96.60;;;4.22;80.37;101413.72;4982965;28;20081;-86
2021/01/10 10:30:33;;;;;;;49.38;22.83;;;4.30;96.80;;;4.26;80.60;101415.19;4992414;28;20031;-86